Terminal Aerodrome Forecast
Issued by NWS Grand Forks, ND

Home | Current Version | Previous Version | Graphics & Text | Print | Product List | Glossary On
Versions: 1 2 3 4 5 6 7 8 9 10 11 12 13 14 15 16
000
FTUS43 KFGF 252200 AAA
TAFGFK
TAF AMD
KGFK 252253Z 2523/2618 33020G30KT P6SM BKN040
     FM260100 33017G24KT P6SM BKN050
     FM260300 33009KT P6SM BKN050
     FM261500 01012KT P6SM SCT050=

USA.gov is the U.S. government's official web portal to all federal, state and local government web resources and services.